sensor_id;sensor_type;location;lat;lon;timestamp;temperature;humidity
24744;DHT22;12844;52.110;5.548;2023-08-07T00:37:20;21.90;56.30
24744;DHT22;12844;52.110;5.548;2023-08-07T00:39:45;21.90;56.00
24744;DHT22;12844;52.110;5.548;2023-08-07T00:42:11;21.90;56.00
24744;DHT22;12844;52.110;5.548;2023-08-07T00:44:36;21.90;56.00
24744;DHT22;12844;52.110;5.548;2023-08-07T00:47:02;21.90;56.10
24744;DHT22;12844;52.110;5.548;2023-08-07T00:49:27;21.90;56.00
24744;DHT22;12844;52.110;5.548;2023-08-07T00:51:53;21.90;56.10
24744;DHT22;12844;52.110;5.548;2023-08-07T00:54:20;21.90;56.10
24744;DHT22;12844;52.110;5.548;2023-08-07T00:56:46;21.90;56.10
24744;DHT22;12844;52.110;5.548;2023-08-07T00:59:13;21.90;56.10
24744;DHT22;12844;52.110;5.548;2023-08-07T01:01:40;21.90;56.10
24744;DHT22;12844;52.110;5.548;2023-08-07T01:04:06;21.90;56.10
24744;DHT22;12844;52.110;5.548;2023-08-07T01:06:31;21.80;56.00
24744;DHT22;12844;52.110;5.548;2023-08-07T01:08:57;21.90;56.10
24744;DHT22;12844;52.110;5.548;2023-08-07T01:14:22;21.80;56.00
24744;DHT22;12844;52.110;5.548;2023-08-07T01:16:52;21.90;56.00
24744;DHT22;12844;52.110;5.548;2023-08-07T01:19:27;21.90;56.10
24744;DHT22;12844;52.110;5.548;2023-08-07T01:22:09;21.90;56.10
24744;DHT22;12844;52.110;5.548;2023-08-07T01:24:35;21.90;56.10
24744;DHT22;12844;52.110;5.548;2023-08-07T01:32:54;21.80;56.10
24744;DHT22;12844;52.110;5.548;2023-08-07T01:35:23;21.80;56.10
24744;DHT22;12844;52.110;5.548;2023-08-07T01:37:53;21.80;56.10
24744;DHT22;12844;52.110;5.548;2023-08-07T01:40:21;21.80;56.10
24744;DHT22;12844;52.110;5.548;2023-08-07T01:42:47;21.80;56.10
24744;DHT22;12844;52.110;5.548;2023-08-07T01:45:13;21.80;56.10
24744;DHT22;12844;52.110;5.548;2023-08-07T01:47:38;21.80;56.10
24744;DHT22;12844;52.110;5.548;2023-08-07T01:50:04;21.80;56.10
24744;DHT22;12844;52.110;5.548;2023-08-07T01:52:30;21.80;56.10
24744;DHT22;12844;52.110;5.548;2023-08-07T01:54:55;21.80;56.10
24744;DHT22;12844;52.110;5.548;2023-08-07T01:57:21;21.80;56.10
24744;DHT22;12844;52.110;5.548;2023-08-07T01:59:47;21.80;56.10
24744;DHT22;12844;52.110;5.548;2023-08-07T02:02:12;21.80;56.10
24744;DHT22;12844;52.110;5.548;2023-08-07T02:04:38;21.80;56.10
24744;DHT22;12844;52.110;5.548;2023-08-07T02:07:03;21.80;56.10
24744;DHT22;12844;52.110;5.548;2023-08-07T02:09:29;21.80;56.10
24744;DHT22;12844;52.110;5.548;2023-08-07T02:11:55;21.80;56.10
24744;DHT22;12844;52.110;5.548;2023-08-07T02:14:20;21.80;56.10
24744;DHT22;12844;52.110;5.548;2023-08-07T02:16:46;21.80;56.10
24744;DHT22;12844;52.110;5.548;2023-08-07T02:19:11;21.80;56.10
24744;DHT22;12844;52.110;5.548;2023-08-07T02:21:37;21.80;56.10
24744;DHT22;12844;52.110;5.548;2023-08-07T02:24:02;21.80;56.10
24744;DHT22;12844;52.110;5.548;2023-08-07T02:26:28;21.80;56.10
24744;DHT22;12844;52.110;5.548;2023-08-07T02:28:53;21.80;56.10
24744;DHT22;12844;52.110;5.548;2023-08-07T02:31:19;21.80;56.10
24744;DHT22;12844;52.110;5.548;2023-08-07T02:33:44;21.80;56.10
24744;DHT22;12844;52.110;5.548;2023-08-07T02:36:10;21.80;56.10
24744;DHT22;12844;52.110;5.548;2023-08-07T02:38:35;21.80;56.10
24744;DHT22;12844;52.110;5.548;2023-08-07T02:41:01;21.80;56.10
24744;DHT22;12844;52.110;5.548;2023-08-07T02:43:26;21.80;56.10
24744;DHT22;12844;52.110;5.548;2023-08-07T02:45:54;21.80;56.10
24744;DHT22;12844;52.110;5.548;2023-08-07T02:48:19;21.80;56.10
24744;DHT22;12844;52.110;5.548;2023-08-07T02:50:45;21.80;56.10
24744;DHT22;12844;52.110;5.548;2023-08-07T02:53:11;21.80;56.10
24744;DHT22;12844;52.110;5.548;2023-08-07T02:55:36;21.80;56.10
24744;DHT22;12844;52.110;5.548;2023-08-07T02:58:02;21.70;56.10
24744;DHT22;12844;52.110;5.548;2023-08-07T03:00:28;21.70;56.10
24744;DHT22;12844;52.110;5.548;2023-08-07T03:02:53;21.80;56.10
24744;DHT22;12844;52.110;5.548;2023-08-07T03:05:19;21.70;56.10
24744;DHT22;12844;52.110;5.548;2023-08-07T03:07:44;21.80;56.10
24744;DHT22;12844;52.110;5.548;2023-08-07T03:10:10;21.80;56.70
24744;DHT22;12844;52.110;5.548;2023-08-07T03:12:36;21.80;56.10
24744;DHT22;12844;52.110;5.548;2023-08-07T03:15:03;21.70;56.10
24744;DHT22;12844;52.110;5.548;2023-08-07T03:17:29;21.80;56.10
24744;DHT22;12844;52.110;5.548;2023-08-07T03:19:54;21.70;56.10
24744;DHT22;12844;52.110;5.548;2023-08-07T03:22:20;21.80;56.10
24744;DHT22;12844;52.110;5.548;2023-08-07T03:24:49;21.80;56.10
24744;DHT22;12844;52.110;5.548;2023-08-07T03:27:15;21.80;56.10
24744;DHT22;12844;52.110;5.548;2023-08-07T03:29:40;21.80;56.10
24744;DHT22;12844;52.110;5.548;2023-08-07T03:32:06;21.80;56.10
24744;DHT22;12844;52.110;5.548;2023-08-07T03:34:32;21.70;56.10
24744;DHT22;12844;52.110;5.548;2023-08-07T03:36:57;21.70;56.10
24744;DHT22;12844;52.110;5.548;2023-08-07T03:39:24;21.80;56.10
24744;DHT22;12844;52.110;5.548;2023-08-07T03:41:50;21.80;56.10
24744;DHT22;12844;52.110;5.548;2023-08-07T03:44:16;21.70;56.10
24744;DHT22;12844;52.110;5.548;2023-08-07T03:46:41;21.80;56.10
24744;DHT22;12844;52.110;5.548;2023-08-07T03:49:07;21.70;56.10
24744;DHT22;12844;52.110;5.548;2023-08-07T03:51:33;21.70;56.10
24744;DHT22;12844;52.110;5.548;2023-08-07T03:53:58;21.70;56.10
24744;DHT22;12844;52.110;5.548;2023-08-07T03:56:24;21.70;56.10
24744;DHT22;12844;52.110;5.548;2023-08-07T03:58:49;21.70;56.10
24744;DHT22;12844;52.110;5.548;2023-08-07T04:01:15;21.70;56.10
24744;DHT22;12844;52.110;5.548;2023-08-07T04:03:41;21.70;56.10
24744;DHT22;12844;52.110;5.548;2023-08-07T04:06:07;21.70;56.10
24744;DHT22;12844;52.110;5.548;2023-08-07T04:08:33;21.70;56.10
24744;DHT22;12844;52.110;5.548;2023-08-07T04:11:02;21.70;56.10
24744;DHT22;12844;52.110;5.548;2023-08-07T04:13:28;21.70;56.10
24744;DHT22;12844;52.110;5.548;2023-08-07T04:15:54;21.70;56.10
24744;DHT22;12844;52.110;5.548;2023-08-07T04:18:19;21.70;56.10
24744;DHT22;12844;52.110;5.548;2023-08-07T04:20:55;21.70;56.10
24744;DHT22;12844;52.110;5.548;2023-08-07T04:23:22;21.70;56.10
24744;DHT22;12844;52.110;5.548;2023-08-07T04:25:47;21.70;56.10
24744;DHT22;12844;52.110;5.548;2023-08-07T04:28:13;21.70;56.10
24744;DHT22;12844;52.110;5.548;2023-08-07T04:30:39;21.70;56.10
24744;DHT22;12844;52.110;5.548;2023-08-07T04:33:05;21.70;56.10
24744;DHT22;12844;52.110;5.548;2023-08-07T04:35:31;21.70;56.10
24744;DHT22;12844;52.110;5.548;2023-08-07T04:37:57;21.70;56.10
24744;DHT22;12844;52.110;5.548;2023-08-07T04:40:22;21.70;56.10
24744;DHT22;12844;52.110;5.548;2023-08-07T04:42:51;21.70;56.10
24744;DHT22;12844;52.110;5.548;2023-08-07T04:45:16;21.70;56.10
24744;DHT22;12844;52.110;5.548;2023-08-07T04:47:42;21.70;56.10
24744;DHT22;12844;52.110;5.548;2023-08-07T04:50:08;21.70;56.20
24744;DHT22;12844;52.110;5.548;2023-08-07T04:52:34;21.60;56.10
24744;DHT22;12844;52.110;5.548;2023-08-07T04:55:00;21.70;56.10
24744;DHT22;12844;52.110;5.548;2023-08-07T04:57:25;21.70;56.10
24744;DHT22;12844;52.110;5.548;2023-08-07T04:59:52;21.70;56.10
24744;DHT22;12844;52.110;5.548;2023-08-07T05:02:18;21.60;56.00
24744;DHT22;12844;52.110;5.548;2023-08-07T05:04:43;21.70;56.10
24744;DHT22;12844;52.110;5.548;2023-08-07T05:07:09;21.60;56.00
24744;DHT22;12844;52.110;5.548;2023-08-07T05:09:35;21.70;56.10
24744;DHT22;12844;52.110;5.548;2023-08-07T05:12:01;21.60;56.00
24744;DHT22;12844;52.110;5.548;2023-08-07T05:14:26;21.60;56.00
24744;DHT22;12844;52.110;5.548;2023-08-07T05:16:52;21.70;56.10
24744;DHT22;12844;52.110;5.548;2023-08-07T05:19:18;21.70;56.10
24744;DHT22;12844;52.110;5.548;2023-08-07T05:21:43;21.70;56.10
24744;DHT22;12844;52.110;5.548;2023-08-07T05:24:09;21.60;56.10
24744;DHT22;12844;52.110;5.548;2023-08-07T05:26:34;21.70;56.10
24744;DHT22;12844;52.110;5.548;2023-08-07T05:29:00;21.70;56.10
24744;DHT22;12844;52.110;5.548;2023-08-07T05:31:25;21.70;56.10
24744;DHT22;12844;52.110;5.548;2023-08-07T05:33:51;21.70;56.10
24744;DHT22;12844;52.110;5.548;2023-08-07T05:36:16;21.70;56.10
24744;DHT22;12844;52.110;5.548;2023-08-07T05:38:42;21.70;56.10
24744;DHT22;12844;52.110;5.548;2023-08-07T05:41:09;21.60;55.90
24744;DHT22;12844;52.110;5.548;2023-08-07T05:43:35;21.70;56.00
24744;DHT22;12844;52.110;5.548;2023-08-07T05:46:00;21.70;56.00
24744;DHT22;12844;52.110;5.548;2023-08-07T05:48:26;21.70;56.00
24744;DHT22;12844;52.110;5.548;2023-08-07T05:50:52;21.70;56.00
24744;DHT22;12844;52.110;5.548;2023-08-07T05:53:18;21.70;55.90
24744;DHT22;12844;52.110;5.548;2023-08-07T05:55:43;21.70;55.90
24744;DHT22;12844;52.110;5.548;2023-08-07T05:58:09;21.70;55.90
24744;DHT22;12844;52.110;5.548;2023-08-07T06:00:34;21.80;55.90
24744;DHT22;12844;52.110;5.548;2023-08-07T06:03:00;21.80;55.90
24744;DHT22;12844;52.110;5.548;2023-08-07T06:05:26;21.70;55.80
24744;DHT22;12844;52.110;5.548;2023-08-07T06:07:51;21.80;55.90
24744;DHT22;12844;52.110;5.548;2023-08-07T06:10:17;21.70;55.80
24744;DHT22;12844;52.110;5.548;2023-08-07T06:12:42;21.70;55.80
24744;DHT22;12844;52.110;5.548;2023-08-07T06:15:08;21.70;55.80
24744;DHT22;12844;52.110;5.548;2023-08-07T06:17:34;21.80;55.80
24744;DHT22;12844;52.110;5.548;2023-08-07T06:20:00;21.70;55.80
24744;DHT22;12844;52.110;5.548;2023-08-07T06:22:25;21.80;55.80
24744;DHT22;12844;52.110;5.548;2023-08-07T06:24:51;21.80;55.80
24744;DHT22;12844;52.110;5.548;2023-08-07T06:27:16;21.70;55.80
24744;DHT22;12844;52.110;5.548;2023-08-07T06:29:42;21.70;55.90
24744;DHT22;12844;52.110;5.548;2023-08-07T06:32:07;21.70;55.90
24744;DHT22;12844;52.110;5.548;2023-08-07T06:34:35;21.70;55.90
24744;DHT22;12844;52.110;5.548;2023-08-07T06:37:00;21.70;55.90
24744;DHT22;12844;52.110;5.548;2023-08-07T06:39:26;21.80;55.90
24744;DHT22;12844;52.110;5.548;2023-08-07T06:41:51;21.80;55.90
24744;DHT22;12844;52.110;5.548;2023-08-07T06:44:17;21.80;55.80
24744;DHT22;12844;52.110;5.548;2023-08-07T06:46:43;21.80;55.80
24744;DHT22;12844;52.110;5.548;2023-08-07T06:49:08;21.80;55.80
24744;DHT22;12844;52.110;5.548;2023-08-07T06:51:34;21.70;55.80
24744;DHT22;12844;52.110;5.548;2023-08-07T06:53:59;21.80;55.80
24744;DHT22;12844;52.110;5.548;2023-08-07T06:56:25;21.80;55.80
24744;DHT22;12844;52.110;5.548;2023-08-07T06:58:50;21.80;55.90
24744;DHT22;12844;52.110;5.548;2023-08-07T08:11:10;21.90;55.70
24744;DHT22;12844;52.110;5.548;2023-08-07T08:13:36;22.00;55.60
24744;DHT22;12844;52.110;5.548;2023-08-07T08:16:04;22.00;55.60
24744;DHT22;12844;52.110;5.548;2023-08-07T08:18:30;22.00;55.60
24744;DHT22;12844;52.110;5.548;2023-08-07T08:20:56;22.00;56.30
24744;DHT22;12844;52.110;5.548;2023-08-07T08:23:21;21.90;55.70
24744;DHT22;12844;52.110;5.548;2023-08-07T08:25:48;21.90;55.60
24744;DHT22;12844;52.110;5.548;2023-08-07T08:28:14;21.90;55.70
24744;DHT22;12844;52.110;5.548;2023-08-07T08:30:39;22.00;55.60
24744;DHT22;12844;52.110;5.548;2023-08-07T08:33:05;21.90;55.60
24744;DHT22;12844;52.110;5.548;2023-08-07T08:35:31;22.00;55.70
24744;DHT22;12844;52.110;5.548;2023-08-07T08:37:57;22.00;55.70
24744;DHT22;12844;52.110;5.548;2023-08-07T08:40:23;22.00;55.70
24744;DHT22;12844;52.110;5.548;2023-08-07T08:42:49;22.00;55.60
24744;DHT22;12844;52.110;5.548;2023-08-07T08:45:17;22.00;55.50
24744;DHT22;12844;52.110;5.548;2023-08-07T08:47:45;22.10;55.40
24744;DHT22;12844;52.110;5.548;2023-08-07T08:50:13;22.10;55.30
24744;DHT22;12844;52.110;5.548;2023-08-07T08:52:44;22.20;55.30
24744;DHT22;12844;52.110;5.548;2023-08-07T08:55:11;22.20;55.20
24744;DHT22;12844;52.110;5.548;2023-08-07T08:57:38;22.30;55.10
24744;DHT22;12844;52.110;5.548;2023-08-07T09:00:08;22.30;55.00
24744;DHT22;12844;52.110;5.548;2023-08-07T09:02:46;22.30;54.90
24744;DHT22;12844;52.110;5.548;2023-08-07T09:05:14;22.40;55.60
24744;DHT22;12844;52.110;5.548;2023-08-07T09:07:39;22.30;55.00
24744;DHT22;12844;52.110;5.548;2023-08-07T09:10:05;22.30;55.00
24744;DHT22;12844;52.110;5.548;2023-08-07T09:12:32;22.30;55.10
24744;DHT22;12844;52.110;5.548;2023-08-07T09:14:59;22.30;55.80
24744;DHT22;12844;52.110;5.548;2023-08-07T09:17:29;22.20;55.20
24744;DHT22;12844;52.110;5.548;2023-08-07T09:19:54;22.20;55.90
24744;DHT22;12844;52.110;5.548;2023-08-07T09:22:20;22.20;55.30
24744;DHT22;12844;52.110;5.548;2023-08-07T09:24:46;22.20;55.30
24744;DHT22;12844;52.110;5.548;2023-08-07T09:27:12;22.20;55.30
24744;DHT22;12844;52.110;5.548;2023-08-07T09:29:41;22.20;55.30
24744;DHT22;12844;52.110;5.548;2023-08-07T09:32:13;22.20;55.30
24744;DHT22;12844;52.110;5.548;2023-08-07T09:34:40;22.20;55.30
24744;DHT22;12844;52.110;5.548;2023-08-07T09:37:07;22.20;55.20
24744;DHT22;12844;52.110;5.548;2023-08-07T09:39:34;22.30;55.10
24744;DHT22;12844;52.110;5.548;2023-08-07T09:42:01;22.40;55.10
24744;DHT22;12844;52.110;5.548;2023-08-07T09:44:35;22.40;54.90
24744;DHT22;12844;52.110;5.548;2023-08-07T09:47:10;22.50;54.80
24744;DHT22;12844;52.110;5.548;2023-08-07T09:49:36;22.50;54.80
24744;DHT22;12844;52.110;5.548;2023-08-07T09:52:06;22.40;54.80
24744;DHT22;12844;52.110;5.548;2023-08-07T09:54:33;22.40;54.90
24744;DHT22;12844;52.110;5.548;2023-08-07T09:56:59;22.40;55.00
24744;DHT22;12844;52.110;5.548;2023-08-07T09:59:26;22.40;55.10
24744;DHT22;12844;52.110;5.548;2023-08-07T10:01:53;22.30;55.10
24744;DHT22;12844;52.110;5.548;2023-08-07T10:04:18;22.30;55.20
24744;DHT22;12844;52.110;5.548;2023-08-07T10:06:45;22.30;55.20
24744;DHT22;12844;52.110;5.548;2023-08-07T10:09:11;22.30;55.30
24744;DHT22;12844;52.110;5.548;2023-08-07T10:11:38;22.20;55.20
24744;DHT22;12844;52.110;5.548;2023-08-07T10:14:05;22.30;55.30
24744;DHT22;12844;52.110;5.548;2023-08-07T10:16:31;22.20;55.30
24744;DHT22;12844;52.110;5.548;2023-08-07T10:18:57;22.20;55.30
24744;DHT22;12844;52.110;5.548;2023-08-07T10:21:24;22.30;55.40
24744;DHT22;12844;52.110;5.548;2023-08-07T10:23:53;22.20;55.30
24744;DHT22;12844;52.110;5.548;2023-08-07T10:26:19;22.20;55.30
24744;DHT22;12844;52.110;5.548;2023-08-07T10:28:45;22.20;55.30
24744;DHT22;12844;52.110;5.548;2023-08-07T10:31:12;22.30;55.40
24744;DHT22;12844;52.110;5.548;2023-08-07T10:33:39;22.30;55.40
24744;DHT22;12844;52.110;5.548;2023-08-07T10:36:09;22.30;55.20
24744;DHT22;12844;52.110;5.548;2023-08-07T10:38:35;22.40;55.00
24744;DHT22;12844;52.110;5.548;2023-08-07T10:41:05;22.50;54.90
24744;DHT22;12844;52.110;5.548;2023-08-07T10:43:40;22.50;54.80
24744;DHT22;12844;52.110;5.548;2023-08-07T10:46:07;22.60;54.70
24744;DHT22;12844;52.110;5.548;2023-08-07T10:48:41;22.60;54.60
24744;DHT22;12844;52.110;5.548;2023-08-07T10:51:07;22.70;54.60
24744;DHT22;12844;52.110;5.548;2023-08-07T10:53:40;22.70;54.60
24744;DHT22;12844;52.110;5.548;2023-08-07T10:58:49;22.70;54.60
24744;DHT22;12844;52.110;5.548;2023-08-07T11:01:27;22.70;54.70
24744;DHT22;12844;52.110;5.548;2023-08-07T11:04:06;22.60;54.70
24744;DHT22;12844;52.110;5.548;2023-08-07T11:06:35;22.60;54.90
24744;DHT22;12844;52.110;5.548;2023-08-07T11:09:03;22.60;55.60
24744;DHT22;12844;52.110;5.548;2023-08-07T11:11:45;22.60;55.00
24744;DHT22;12844;52.110;5.548;2023-08-07T11:14:13;22.50;54.90
24744;DHT22;12844;52.110;5.548;2023-08-07T11:16:39;22.50;54.90
24744;DHT22;12844;52.110;5.548;2023-08-07T11:19:05;22.50;54.90
24744;DHT22;12844;52.110;5.548;2023-08-07T11:21:32;22.50;54.80
24744;DHT22;12844;52.110;5.548;2023-08-07T11:23:58;22.50;54.90
24744;DHT22;12844;52.110;5.548;2023-08-07T11:26:24;22.50;54.90
24744;DHT22;12844;52.110;5.548;2023-08-07T11:28:53;22.50;55.00
24744;DHT22;12844;52.110;5.548;2023-08-07T11:31:19;22.50;55.10
24744;DHT22;12844;52.110;5.548;2023-08-07T11:33:45;22.50;55.00
24744;DHT22;12844;52.110;5.548;2023-08-07T11:36:11;22.50;55.00
24744;DHT22;12844;52.110;5.548;2023-08-07T11:38:39;22.50;54.90
24744;DHT22;12844;52.110;5.548;2023-08-07T11:41:06;22.60;54.80
24744;DHT22;12844;52.110;5.548;2023-08-07T11:43:35;22.60;54.80
24744;DHT22;12844;52.110;5.548;2023-08-07T11:46:02;22.70;55.30
24744;DHT22;12844;52.110;5.548;2023-08-07T11:48:29;22.70;54.70
24744;DHT22;12844;52.110;5.548;2023-08-07T11:50:56;22.70;54.70
24744;DHT22;12844;52.110;5.548;2023-08-07T11:53:24;22.70;54.70
24744;DHT22;12844;52.110;5.548;2023-08-07T11:55:59;22.70;54.70
24744;DHT22;12844;52.110;5.548;2023-08-07T11:58:27;22.70;54.70
24744;DHT22;12844;52.110;5.548;2023-08-07T12:00:53;22.70;54.60
24744;DHT22;12844;52.110;5.548;2023-08-07T12:03:30;22.70;54.70
24744;DHT22;12844;52.110;5.548;2023-08-07T12:05:56;22.70;54.60
24744;DHT22;12844;52.110;5.548;2023-08-07T12:08:22;22.70;54.60
24744;DHT22;12844;52.110;5.548;2023-08-07T12:10:54;22.70;54.60
24744;DHT22;12844;52.110;5.548;2023-08-07T12:13:23;22.80;54.60
24744;DHT22;12844;52.110;5.548;2023-08-07T12:15:51;22.80;54.70
24744;DHT22;12844;52.110;5.548;2023-08-07T12:18:22;22.80;54.70
24744;DHT22;12844;52.110;5.548;2023-08-07T12:20:50;22.80;54.70
24744;DHT22;12844;52.110;5.548;2023-08-07T12:23:17;22.70;54.70
24744;DHT22;12844;52.110;5.548;2023-08-07T12:25:43;22.70;54.80
24744;DHT22;12844;52.110;5.548;2023-08-07T12:28:09;22.70;54.90
24744;DHT22;12844;52.110;5.548;2023-08-07T12:30:35;22.70;54.90
24744;DHT22;12844;52.110;5.548;2023-08-07T12:33:01;22.70;54.90
24744;DHT22;12844;52.110;5.548;2023-08-07T12:35:32;22.60;55.00
24744;DHT22;12844;52.110;5.548;2023-08-07T12:37:58;22.60;55.00
24744;DHT22;12844;52.110;5.548;2023-08-07T12:40:24;22.60;55.00
24744;DHT22;12844;52.110;5.548;2023-08-07T12:42:50;22.60;55.10
24744;DHT22;12844;52.110;5.548;2023-08-07T12:45:16;22.60;55.40
24744;DHT22;12844;52.110;5.548;2023-08-07T12:47:42;22.60;55.20
24744;DHT22;12844;52.110;5.548;2023-08-07T12:50:08;22.70;55.00
24744;DHT22;12844;52.110;5.548;2023-08-07T12:52:34;22.80;54.80
24744;DHT22;12844;52.110;5.548;2023-08-07T12:55:00;22.90;54.70
24744;DHT22;12844;52.110;5.548;2023-08-07T12:57:26;23.00;54.60
24744;DHT22;12844;52.110;5.548;2023-08-07T12:59:52;23.00;54.50
24744;DHT22;12844;52.110;5.548;2023-08-07T13:02:17;23.10;54.40
24744;DHT22;12844;52.110;5.548;2023-08-07T13:04:43;23.10;54.40
24744;DHT22;12844;52.110;5.548;2023-08-07T13:07:09;23.20;54.30
24744;DHT22;12844;52.110;5.548;2023-08-07T13:09:34;23.10;54.30
24744;DHT22;12844;52.110;5.548;2023-08-07T13:12:00;23.20;54.30
24744;DHT22;12844;52.110;5.548;2023-08-07T13:14:25;23.20;54.30
24744;DHT22;12844;52.110;5.548;2023-08-07T13:16:51;23.20;54.30
24744;DHT22;12844;52.110;5.548;2023-08-07T13:19:17;23.20;54.40
24744;DHT22;12844;52.110;5.548;2023-08-07T13:21:43;23.20;54.50
24744;DHT22;12844;52.110;5.548;2023-08-07T13:24:08;23.20;54.50
24744;DHT22;12844;52.110;5.548;2023-08-07T13:26:34;23.20;54.50
24744;DHT22;12844;52.110;5.548;2023-08-07T13:28:59;23.20;54.30
24744;DHT22;12844;52.110;5.548;2023-08-07T13:31:25;23.20;54.50
24744;DHT22;12844;52.110;5.548;2023-08-07T13:33:51;23.20;54.60
24744;DHT22;12844;52.110;5.548;2023-08-07T13:36:16;23.20;54.60
24744;DHT22;12844;52.110;5.548;2023-08-07T13:38:42;23.20;54.50
24744;DHT22;12844;52.110;5.548;2023-08-07T13:41:07;23.30;54.60
24744;DHT22;12844;52.110;5.548;2023-08-07T13:43:33;23.30;54.60
24744;DHT22;12844;52.110;5.548;2023-08-07T13:45:58;23.30;54.50
24744;DHT22;12844;52.110;5.548;2023-08-07T13:48:24;23.30;54.50
24744;DHT22;12844;52.110;5.548;2023-08-07T13:50:52;23.30;54.60
24744;DHT22;12844;52.110;5.548;2023-08-07T13:53:18;23.20;54.60
24744;DHT22;12844;52.110;5.548;2023-08-07T13:55:45;23.30;54.60
24744;DHT22;12844;52.110;5.548;2023-08-07T13:58:12;23.30;54.60
24744;DHT22;12844;52.110;5.548;2023-08-07T14:00:40;23.30;54.60
24744;DHT22;12844;52.110;5.548;2023-08-07T14:03:06;23.30;54.60
24744;DHT22;12844;52.110;5.548;2023-08-07T14:05:32;23.30;54.60
24744;DHT22;12844;52.110;5.548;2023-08-07T14:07:57;23.20;54.70
24744;DHT22;12844;52.110;5.548;2023-08-07T14:10:23;23.20;54.80
24744;DHT22;12844;52.110;5.548;2023-08-07T14:12:48;23.20;54.90
24744;DHT22;12844;52.110;5.548;2023-08-07T14:15:14;23.20;55.00
24744;DHT22;12844;52.110;5.548;2023-08-07T14:17:39;23.20;55.00
24744;DHT22;12844;52.110;5.548;2023-08-07T14:20:06;23.20;55.00
24744;DHT22;12844;52.110;5.548;2023-08-07T14:22:31;23.10;54.90
24744;DHT22;12844;52.110;5.548;2023-08-07T14:24:57;23.20;55.00
24744;DHT22;12844;52.110;5.548;2023-08-07T14:27:23;23.10;55.10
24744;DHT22;12844;52.110;5.548;2023-08-07T14:29:48;23.10;55.10
24744;DHT22;12844;52.110;5.548;2023-08-07T14:32:14;23.10;55.10
24744;DHT22;12844;52.110;5.548;2023-08-07T16:44:07;23.20;56.10
24744;DHT22;12844;52.110;5.548;2023-08-07T16:46:33;23.20;56.20
24744;DHT22;12844;52.110;5.548;2023-08-07T16:48:58;23.20;56.00
24744;DHT22;12844;52.110;5.548;2023-08-07T16:51:24;23.20;55.90
24744;DHT22;12844;52.110;5.548;2023-08-07T16:53:51;23.20;55.90
24744;DHT22;12844;52.110;5.548;2023-08-07T16:56:16;23.20;55.90
24744;DHT22;12844;52.110;5.548;2023-08-07T16:58:42;23.20;56.00
24744;DHT22;12844;52.110;5.548;2023-08-07T17:01:10;23.20;56.10
24744;DHT22;12844;52.110;5.548;2023-08-07T17:03:35;23.20;56.20
24744;DHT22;12844;52.110;5.548;2023-08-07T17:06:01;23.10;56.30
24744;DHT22;12844;52.110;5.548;2023-08-07T17:08:26;23.20;56.30
24744;DHT22;12844;52.110;5.548;2023-08-07T17:10:52;23.20;56.30
24744;DHT22;12844;52.110;5.548;2023-08-07T17:13:17;23.20;56.40
24744;DHT22;12844;52.110;5.548;2023-08-07T17:15:43;23.20;56.60
24744;DHT22;12844;52.110;5.548;2023-08-07T17:18:08;23.10;56.40
24744;DHT22;12844;52.110;5.548;2023-08-07T17:20:34;23.10;56.40
24744;DHT22;12844;52.110;5.548;2023-08-07T17:22:59;23.10;56.40
24744;DHT22;12844;52.110;5.548;2023-08-07T17:25:25;23.10;56.50
24744;DHT22;12844;52.110;5.548;2023-08-07T17:27:50;23.10;56.50
24744;DHT22;12844;52.110;5.548;2023-08-07T17:30:16;23.10;56.50
24744;DHT22;12844;52.110;5.548;2023-08-07T17:32:41;23.10;56.70
24744;DHT22;12844;52.110;5.548;2023-08-07T17:35:07;23.10;57.00
24744;DHT22;12844;52.110;5.548;2023-08-07T17:37:33;23.00;56.90
24744;DHT22;12844;52.110;5.548;2023-08-07T17:39:58;23.00;56.90
24744;DHT22;12844;52.110;5.548;2023-08-07T17:42:24;23.00;57.00
24744;DHT22;12844;52.110;5.548;2023-08-07T17:44:49;23.00;56.80
24744;DHT22;12844;52.110;5.548;2023-08-07T17:47:16;23.00;57.00
24744;DHT22;12844;52.110;5.548;2023-08-07T17:49:41;23.00;57.10
24744;DHT22;12844;52.110;5.548;2023-08-07T17:52:08;23.00;57.00
24744;DHT22;12844;52.110;5.548;2023-08-07T17:54:34;23.00;57.40
24744;DHT22;12844;52.110;5.548;2023-08-07T17:57:02;23.00;57.70
24744;DHT22;12844;52.110;5.548;2023-08-07T17:59:28;23.00;57.80
24744;DHT22;12844;52.110;5.548;2023-08-07T18:01:53;23.00;58.50
24744;DHT22;12844;52.110;5.548;2023-08-07T18:04:19;23.00;57.90
24744;DHT22;12844;52.110;5.548;2023-08-07T18:06:44;23.00;58.00
24744;DHT22;12844;52.110;5.548;2023-08-07T18:09:10;23.00;58.00
24744;DHT22;12844;52.110;5.548;2023-08-07T18:11:35;23.00;58.00
24744;DHT22;12844;52.110;5.548;2023-08-07T18:14:01;23.00;57.90
24744;DHT22;12844;52.110;5.548;2023-08-07T18:16:27;23.00;57.60
24744;DHT22;12844;52.110;5.548;2023-08-07T18:18:52;23.00;57.30
24744;DHT22;12844;52.110;5.548;2023-08-07T18:21:19;22.90;57.20
24744;DHT22;12844;52.110;5.548;2023-08-07T18:23:45;22.90;57.10
24744;DHT22;12844;52.110;5.548;2023-08-07T18:26:11;23.00;57.10
24744;DHT22;12844;52.110;5.548;2023-08-07T18:28:36;22.90;57.70
24744;DHT22;12844;52.110;5.548;2023-08-07T18:31:03;22.90;57.00
24744;DHT22;12844;52.110;5.548;2023-08-07T18:33:29;22.90;57.00
24744;DHT22;12844;52.110;5.548;2023-08-07T18:35:54;22.90;57.10
24744;DHT22;12844;52.110;5.548;2023-08-07T18:38:25;22.90;57.10
24744;DHT22;12844;52.110;5.548;2023-08-07T18:40:50;22.90;57.10
24744;DHT22;12844;52.110;5.548;2023-08-07T18:43:16;22.90;57.40
24744;DHT22;12844;52.110;5.548;2023-08-07T18:45:41;22.90;57.00
24744;DHT22;12844;52.110;5.548;2023-08-07T18:48:07;22.90;57.00
24744;DHT22;12844;52.110;5.548;2023-08-07T18:50:33;22.90;57.00
24744;DHT22;12844;52.110;5.548;2023-08-07T18:52:59;22.90;57.10
24744;DHT22;12844;52.110;5.548;2023-08-07T18:55:25;22.90;57.60
24744;DHT22;12844;52.110;5.548;2023-08-07T18:57:51;22.90;57.80
24744;DHT22;12844;52.110;5.548;2023-08-07T19:00:16;22.90;57.90
24744;DHT22;12844;52.110;5.548;2023-08-07T19:02:42;22.90;58.10
24744;DHT22;12844;52.110;5.548;2023-08-07T19:05:08;22.90;58.20
24744;DHT22;12844;52.110;5.548;2023-08-07T19:07:34;22.90;58.30
24744;DHT22;12844;52.110;5.548;2023-08-07T19:09:59;22.90;58.30
24744;DHT22;12844;52.110;5.548;2023-08-07T19:12:25;22.90;58.50
24744;DHT22;12844;52.110;5.548;2023-08-07T19:14:51;22.90;58.60
24744;DHT22;12844;52.110;5.548;2023-08-07T19:17:16;22.90;58.60
24744;DHT22;12844;52.110;5.548;2023-08-07T19:19:42;22.90;58.70
24744;DHT22;12844;52.110;5.548;2023-08-07T19:22:08;22.90;58.70
24744;DHT22;12844;52.110;5.548;2023-08-07T19:24:33;22.90;58.70
24744;DHT22;12844;52.110;5.548;2023-08-07T19:26:59;22.90;58.50
24744;DHT22;12844;52.110;5.548;2023-08-07T19:29:25;22.90;58.30
24744;DHT22;12844;52.110;5.548;2023-08-07T19:31:50;22.90;58.10